sensor_id;sensor_type;location;lat;lon;timestamp;P1;durP1;ratioP1;P2;durP2;ratioP2
35803;SDS011;21924;51.934;7.414;2023-08-06T00:01:42;20.88;;;10.77;;
35803;SDS011;21924;51.934;7.414;2023-08-06T00:04:28;19.38;;;11.35;;
35803;SDS011;21924;51.934;7.414;2023-08-06T00:07:12;17.90;;;10.77;;
35803;SDS011;21924;51.934;7.414;2023-08-06T00:09:57;19.98;;;10.90;;
35803;SDS011;21924;51.934;7.414;2023-08-06T00:12:42;20.27;;;10.70;;
35803;SDS011;21924;51.934;7.414;2023-08-06T00:15:27;23.88;;;11.02;;
35803;SDS011;21924;51.934;7.414;2023-08-06T00:18:13;23.77;;;12.82;;
35803;SDS011;21924;51.934;7.414;2023-08-06T00:21:02;23.48;;;12.05;;
35803;SDS011;21924;51.934;7.414;2023-08-06T00:23:48;20.15;;;11.35;;
35803;SDS011;21924;51.934;7.414;2023-08-06T00:26:32;19.75;;;11.52;;
35803;SDS011;21924;51.934;7.414;2023-08-06T00:29:17;20.63;;;11.32;;
35803;SDS011;21924;51.934;7.414;2023-08-06T00:32:03;28.98;;;11.02;;
35803;SDS011;21924;51.934;7.414;2023-08-06T00:34:47;19.92;;;11.07;;
35803;SDS011;21924;51.934;7.414;2023-08-06T00:37:33;21.23;;;10.25;;
35803;SDS011;21924;51.934;7.414;2023-08-06T00:40:20;21.73;;;10.65;;
35803;SDS011;21924;51.934;7.414;2023-08-06T00:43:06;24.83;;;11.77;;
35803;SDS011;21924;51.934;7.414;2023-08-06T00:45:50;21.27;;;11.90;;
35803;SDS011;21924;51.934;7.414;2023-08-06T00:48:37;23.67;;;12.20;;
35803;SDS011;21924;51.934;7.414;2023-08-06T00:51:23;26.80;;;14.20;;
35803;SDS011;21924;51.934;7.414;2023-08-06T00:54:09;24.42;;;14.63;;
35803;SDS011;21924;51.934;7.414;2023-08-06T00:56:55;34.10;;;13.65;;
35803;SDS011;21924;51.934;7.414;2023-08-06T00:59:46;22.27;;;12.70;;
35803;SDS011;21924;51.934;7.414;2023-08-06T01:02:30;24.40;;;12.52;;
35803;SDS011;21924;51.934;7.414;2023-08-06T01:05:16;23.10;;;11.93;;
35803;SDS011;21924;51.934;7.414;2023-08-06T01:12:04;34.60;;;12.95;;
35803;SDS011;21924;51.934;7.414;2023-08-06T01:15:32;21.50;;;12.10;;
35803;SDS011;21924;51.934;7.414;2023-08-06T01:18:27;21.90;;;11.85;;
35803;SDS011;21924;51.934;7.414;2023-08-06T01:21:15;23.88;;;11.40;;
35803;SDS011;21924;51.934;7.414;2023-08-06T01:24:00;29.60;;;12.02;;
35803;SDS011;21924;51.934;7.414;2023-08-06T01:26:55;21.50;;;11.75;;
35803;SDS011;21924;51.934;7.414;2023-08-06T01:30:02;26.30;;;12.98;;
35803;SDS011;21924;51.934;7.414;2023-08-06T01:32:53;23.98;;;11.88;;
35803;SDS011;21924;51.934;7.414;2023-08-06T01:35:42;22.23;;;11.55;;
35803;SDS011;21924;51.934;7.414;2023-08-06T01:38:26;29.20;;;12.63;;
35803;SDS011;21924;51.934;7.414;2023-08-06T01:41:12;21.50;;;11.73;;
35803;SDS011;21924;51.934;7.414;2023-08-06T01:43:58;23.85;;;11.73;;
35803;SDS011;21924;51.934;7.414;2023-08-06T01:46:42;22.98;;;12.05;;
35803;SDS011;21924;51.934;7.414;2023-08-06T01:49:26;20.70;;;11.90;;
35803;SDS011;21924;51.934;7.414;2023-08-06T01:52:11;24.33;;;11.90;;
35803;SDS011;21924;51.934;7.414;2023-08-06T01:54:55;29.77;;;13.13;;
35803;SDS011;21924;51.934;7.414;2023-08-06T01:57:40;23.00;;;12.13;;
35803;SDS011;21924;51.934;7.414;2023-08-06T02:00:24;28.17;;;13.27;;
35803;SDS011;21924;51.934;7.414;2023-08-06T02:03:08;26.98;;;14.07;;
35803;SDS011;21924;51.934;7.414;2023-08-06T02:05:52;31.25;;;14.93;;
35803;SDS011;21924;51.934;7.414;2023-08-06T02:08:37;26.50;;;13.13;;
35803;SDS011;21924;51.934;7.414;2023-08-06T02:11:23;25.75;;;12.65;;
35803;SDS011;21924;51.934;7.414;2023-08-06T02:14:07;25.27;;;13.25;;
35803;SDS011;21924;51.934;7.414;2023-08-06T02:16:52;31.88;;;13.18;;
35803;SDS011;21924;51.934;7.414;2023-08-06T02:19:36;25.17;;;13.07;;
35803;SDS011;21924;51.934;7.414;2023-08-06T02:22:20;21.92;;;12.40;;
35803;SDS011;21924;51.934;7.414;2023-08-06T02:25:06;24.88;;;13.10;;
35803;SDS011;21924;51.934;7.414;2023-08-06T02:27:51;25.73;;;13.25;;
35803;SDS011;21924;51.934;7.414;2023-08-06T02:30:35;27.17;;;13.43;;
35803;SDS011;21924;51.934;7.414;2023-08-06T02:33:20;26.42;;;11.88;;
35803;SDS011;21924;51.934;7.414;2023-08-06T02:36:04;22.05;;;12.25;;
35803;SDS011;21924;51.934;7.414;2023-08-06T02:38:48;28.60;;;12.88;;
35803;SDS011;21924;51.934;7.414;2023-08-06T02:41:32;25.58;;;12.60;;
35803;SDS011;21924;51.934;7.414;2023-08-06T02:44:17;26.30;;;12.77;;
35803;SDS011;21924;51.934;7.414;2023-08-06T02:47:01;26.23;;;13.23;;
35803;SDS011;21924;51.934;7.414;2023-08-06T02:49:45;27.20;;;13.80;;
35803;SDS011;21924;51.934;7.414;2023-08-06T02:52:30;24.77;;;13.35;;
35803;SDS011;21924;51.934;7.414;2023-08-06T02:55:14;29.23;;;11.82;;
35803;SDS011;21924;51.934;7.414;2023-08-06T02:58:00;24.58;;;13.02;;
35803;SDS011;21924;51.934;7.414;2023-08-06T03:00:47;21.05;;;12.20;;
35803;SDS011;21924;51.934;7.414;2023-08-06T03:03:43;25.67;;;13.48;;
35803;SDS011;21924;51.934;7.414;2023-08-06T03:06:27;20.92;;;12.02;;
35803;SDS011;21924;51.934;7.414;2023-08-06T03:09:13;24.27;;;12.38;;
35803;SDS011;21924;51.934;7.414;2023-08-06T03:11:57;30.05;;;12.80;;
35803;SDS011;21924;51.934;7.414;2023-08-06T03:14:43;24.75;;;12.98;;
35803;SDS011;21924;51.934;7.414;2023-08-06T03:17:27;27.50;;;13.75;;
35803;SDS011;21924;51.934;7.414;2023-08-06T03:20:12;21.80;;;12.05;;
35803;SDS011;21924;51.934;7.414;2023-08-06T03:22:57;24.90;;;12.38;;
35803;SDS011;21924;51.934;7.414;2023-08-06T03:25:43;18.57;;;10.63;;
35803;SDS011;21924;51.934;7.414;2023-08-06T03:28:27;20.90;;;12.43;;
35803;SDS011;21924;51.934;7.414;2023-08-06T03:31:11;21.75;;;12.25;;
35803;SDS011;21924;51.934;7.414;2023-08-06T03:33:55;26.63;;;11.68;;
35803;SDS011;21924;51.934;7.414;2023-08-06T03:36:40;23.15;;;10.57;;
35803;SDS011;21924;51.934;7.414;2023-08-06T03:39:24;22.10;;;10.80;;
35803;SDS011;21924;51.934;7.414;2023-08-06T03:42:08;22.00;;;12.27;;
35803;SDS011;21924;51.934;7.414;2023-08-06T03:44:53;20.02;;;10.18;;
35803;SDS011;21924;51.934;7.414;2023-08-06T03:47:37;22.20;;;12.05;;
35803;SDS011;21924;51.934;7.414;2023-08-06T03:50:22;19.98;;;11.20;;
35803;SDS011;21924;51.934;7.414;2023-08-06T03:53:08;23.33;;;11.05;;
35803;SDS011;21924;51.934;7.414;2023-08-06T03:55:52;21.00;;;11.57;;
35803;SDS011;21924;51.934;7.414;2023-08-06T03:58:37;23.27;;;11.48;;
35803;SDS011;21924;51.934;7.414;2023-08-06T04:01:21;21.98;;;11.30;;
35803;SDS011;21924;51.934;7.414;2023-08-06T04:04:05;24.67;;;11.77;;
35803;SDS011;21924;51.934;7.414;2023-08-06T04:06:49;23.65;;;10.70;;
35803;SDS011;21924;51.934;7.414;2023-08-06T04:09:34;20.38;;;10.77;;
35803;SDS011;21924;51.934;7.414;2023-08-06T04:12:34;21.60;;;11.68;;
35803;SDS011;21924;51.934;7.414;2023-08-06T04:15:20;21.05;;;11.63;;
35803;SDS011;21924;51.934;7.414;2023-08-06T04:18:04;22.17;;;10.77;;
35803;SDS011;21924;51.934;7.414;2023-08-06T04:20:49;19.98;;;11.38;;
35803;SDS011;21924;51.934;7.414;2023-08-06T04:23:33;19.08;;;10.07;;
35803;SDS011;21924;51.934;7.414;2023-08-06T04:26:17;22.60;;;11.25;;
35803;SDS011;21924;51.934;7.414;2023-08-06T04:29:02;20.92;;;10.65;;
35803;SDS011;21924;51.934;7.414;2023-08-06T04:31:47;22.60;;;10.55;;
35803;SDS011;21924;51.934;7.414;2023-08-06T04:34:31;19.77;;;10.70;;
35803;SDS011;21924;51.934;7.414;2023-08-06T04:37:16;22.48;;;10.30;;
35803;SDS011;21924;51.934;7.414;2023-08-06T04:40:01;18.30;;;9.65;;
35803;SDS011;21924;51.934;7.414;2023-08-06T04:42:47;25.85;;;9.50;;
35803;SDS011;21924;51.934;7.414;2023-08-06T04:45:32;19.75;;;10.13;;
35803;SDS011;21924;51.934;7.414;2023-08-06T04:48:17;16.92;;;10.50;;
35803;SDS011;21924;51.934;7.414;2023-08-06T04:51:03;13.43;;;8.45;;
35803;SDS011;21924;51.934;7.414;2023-08-06T04:53:47;14.50;;;8.88;;
35803;SDS011;21924;51.934;7.414;2023-08-06T04:56:31;17.70;;;9.25;;
35803;SDS011;21924;51.934;7.414;2023-08-06T04:59:17;18.63;;;9.65;;
35803;SDS011;21924;51.934;7.414;2023-08-06T05:02:01;18.97;;;9.67;;
35803;SDS011;21924;51.934;7.414;2023-08-06T05:04:47;12.38;;;7.97;;
35803;SDS011;21924;51.934;7.414;2023-08-06T05:07:31;15.77;;;8.43;;
35803;SDS011;21924;51.934;7.414;2023-08-06T05:10:16;15.25;;;8.27;;
35803;SDS011;21924;51.934;7.414;2023-08-06T05:13:00;11.95;;;7.43;;
35803;SDS011;21924;51.934;7.414;2023-08-06T05:15:45;13.75;;;8.65;;
35803;SDS011;21924;51.934;7.414;2023-08-06T05:18:30;14.32;;;8.82;;
35803;SDS011;21924;51.934;7.414;2023-08-06T05:21:14;14.38;;;7.75;;
35803;SDS011;21924;51.934;7.414;2023-08-06T05:24:00;13.98;;;7.88;;
35803;SDS011;21924;51.934;7.414;2023-08-06T05:26:45;13.68;;;7.07;;
35803;SDS011;21924;51.934;7.414;2023-08-06T05:29:32;13.40;;;8.00;;
35803;SDS011;21924;51.934;7.414;2023-08-06T05:32:16;23.20;;;7.97;;
35803;SDS011;21924;51.934;7.414;2023-08-06T05:35:01;16.02;;;7.50;;
35803;SDS011;21924;51.934;7.414;2023-08-06T05:37:46;19.93;;;6.70;;
35803;SDS011;21924;51.934;7.414;2023-08-06T05:40:33;11.20;;;6.63;;
35803;SDS011;21924;51.934;7.414;2023-08-06T05:43:17;13.05;;;6.82;;
35803;SDS011;21924;51.934;7.414;2023-08-06T05:46:02;14.35;;;6.57;;
35803;SDS011;21924;51.934;7.414;2023-08-06T05:48:47;8.88;;;6.10;;
35803;SDS011;21924;51.934;7.414;2023-08-06T05:51:32;12.07;;;6.30;;
35803;SDS011;21924;51.934;7.414;2023-08-06T05:54:16;12.43;;;5.73;;
35803;SDS011;21924;51.934;7.414;2023-08-06T05:57:01;12.73;;;5.85;;
35803;SDS011;21924;51.934;7.414;2023-08-06T05:59:45;13.10;;;5.07;;
35803;SDS011;21924;51.934;7.414;2023-08-06T06:02:30;11.32;;;4.45;;
35803;SDS011;21924;51.934;7.414;2023-08-06T06:05:15;6.82;;;4.60;;
35803;SDS011;21924;51.934;7.414;2023-08-06T06:08:01;5.47;;;3.47;;
35803;SDS011;21924;51.934;7.414;2023-08-06T06:10:45;10.13;;;4.03;;
35803;SDS011;21924;51.934;7.414;2023-08-06T06:13:32;6.63;;;4.47;;
35803;SDS011;21924;51.934;7.414;2023-08-06T06:16:17;7.15;;;4.03;;
35803;SDS011;21924;51.934;7.414;2023-08-06T06:19:01;4.68;;;3.55;;
35803;SDS011;21924;51.934;7.414;2023-08-06T06:21:47;5.18;;;3.92;;
35803;SDS011;21924;51.934;7.414;2023-08-06T06:24:31;9.20;;;3.90;;
35803;SDS011;21924;51.934;7.414;2023-08-06T06:27:15;6.32;;;3.72;;
35803;SDS011;21924;51.934;7.414;2023-08-06T06:29:59;8.52;;;3.45;;
35803;SDS011;21924;51.934;7.414;2023-08-06T06:32:43;9.93;;;4.18;;
35803;SDS011;21924;51.934;7.414;2023-08-06T06:35:28;13.88;;;4.70;;
35803;SDS011;21924;51.934;7.414;2023-08-06T06:38:13;7.53;;;3.80;;
35803;SDS011;21924;51.934;7.414;2023-08-06T06:40:58;5.75;;;3.92;;
35803;SDS011;21924;51.934;7.414;2023-08-06T06:43:42;7.65;;;4.20;;
35803;SDS011;21924;51.934;7.414;2023-08-06T06:46:26;23.90;;;4.38;;
35803;SDS011;21924;51.934;7.414;2023-08-06T06:49:11;6.50;;;3.90;;
35803;SDS011;21924;51.934;7.414;2023-08-06T06:51:55;6.82;;;4.13;;
35803;SDS011;21924;51.934;7.414;2023-08-06T06:54:39;10.20;;;3.85;;
35803;SDS011;21924;51.934;7.414;2023-08-06T06:57:24;6.82;;;4.07;;
35803;SDS011;21924;51.934;7.414;2023-08-06T07:00:08;12.85;;;4.05;;
35803;SDS011;21924;51.934;7.414;2023-08-06T07:02:53;7.43;;;3.45;;
35803;SDS011;21924;51.934;7.414;2023-08-06T07:05:37;8.57;;;3.50;;
35803;SDS011;21924;51.934;7.414;2023-08-06T07:08:22;5.60;;;2.80;;
35803;SDS011;21924;51.934;7.414;2023-08-06T07:11:07;8.02;;;3.20;;
35803;SDS011;21924;51.934;7.414;2023-08-06T07:13:56;4.90;;;3.13;;
35803;SDS011;21924;51.934;7.414;2023-08-06T07:16:44;4.85;;;3.13;;
35803;SDS011;21924;51.934;7.414;2023-08-06T07:19:28;4.40;;;2.92;;
35803;SDS011;21924;51.934;7.414;2023-08-06T07:22:13;8.43;;;3.60;;
35803;SDS011;21924;51.934;7.414;2023-08-06T07:24:57;5.78;;;3.25;;
35803;SDS011;21924;51.934;7.414;2023-08-06T07:27:42;17.17;;;3.80;;
35803;SDS011;21924;51.934;7.414;2023-08-06T07:33:13;4.32;;;2.90;;
35803;SDS011;21924;51.934;7.414;2023-08-06T07:35:57;5.47;;;2.90;;
35803;SDS011;21924;51.934;7.414;2023-08-06T07:38:43;3.25;;;2.45;;
35803;SDS011;21924;51.934;7.414;2023-08-06T07:41:27;5.22;;;3.20;;
35803;SDS011;21924;51.934;7.414;2023-08-06T07:44:11;4.75;;;2.95;;
35803;SDS011;21924;51.934;7.414;2023-08-06T07:46:55;5.88;;;2.85;;
35803;SDS011;21924;51.934;7.414;2023-08-06T07:49:39;4.35;;;2.33;;
35803;SDS011;21924;51.934;7.414;2023-08-06T07:52:39;4.82;;;2.80;;
35803;SDS011;21924;51.934;7.414;2023-08-06T07:55:25;8.55;;;2.28;;
35803;SDS011;21924;51.934;7.414;2023-08-06T07:58:09;10.18;;;2.55;;
35803;SDS011;21924;51.934;7.414;2023-08-06T08:00:53;5.47;;;2.65;;
35803;SDS011;21924;51.934;7.414;2023-08-06T08:03:37;5.85;;;3.17;;
35803;SDS011;21924;51.934;7.414;2023-08-06T08:06:22;3.92;;;2.70;;
35803;SDS011;21924;51.934;7.414;2023-08-06T08:09:07;3.80;;;2.70;;
35803;SDS011;21924;51.934;7.414;2023-08-06T08:11:51;5.13;;;2.55;;
35803;SDS011;21924;51.934;7.414;2023-08-06T08:14:36;3.25;;;2.40;;
35803;SDS011;21924;51.934;7.414;2023-08-06T08:17:20;2.63;;;2.17;;
35803;SDS011;21924;51.934;7.414;2023-08-06T08:20:06;4.40;;;2.80;;
35803;SDS011;21924;51.934;7.414;2023-08-06T08:22:51;5.07;;;3.03;;
35803;SDS011;21924;51.934;7.414;2023-08-06T08:25:36;7.93;;;3.17;;
35803;SDS011;21924;51.934;7.414;2023-08-06T08:28:21;5.38;;;3.30;;
35803;SDS011;21924;51.934;7.414;2023-08-06T08:31:07;6.75;;;3.35;;
35803;SDS011;21924;51.934;7.414;2023-08-06T08:33:53;6.50;;;3.22;;
35803;SDS011;21924;51.934;7.414;2023-08-06T08:36:37;4.80;;;2.75;;
35803;SDS011;21924;51.934;7.414;2023-08-06T08:39:21;5.50;;;2.88;;
35803;SDS011;21924;51.934;7.414;2023-08-06T08:42:06;5.55;;;3.30;;
35803;SDS011;21924;51.934;7.414;2023-08-06T08:44:52;5.05;;;3.20;;
35803;SDS011;21924;51.934;7.414;2023-08-06T08:47:38;14.77;;;3.20;;
35803;SDS011;21924;51.934;7.414;2023-08-06T08:50:27;6.55;;;3.40;;
35803;SDS011;21924;51.934;7.414;2023-08-06T08:53:12;6.28;;;3.20;;
35803;SDS011;21924;51.934;7.414;2023-08-06T08:55:58;3.78;;;2.72;;
35803;SDS011;21924;51.934;7.414;2023-08-06T08:58:46;3.72;;;2.85;;
35803;SDS011;21924;51.934;7.414;2023-08-06T09:01:30;4.68;;;2.88;;
35803;SDS011;21924;51.934;7.414;2023-08-06T09:04:14;4.13;;;3.00;;
35803;SDS011;21924;51.934;7.414;2023-08-06T09:07:01;4.30;;;2.88;;
35803;SDS011;21924;51.934;7.414;2023-08-06T09:09:47;4.38;;;3.00;;
35803;SDS011;21924;51.934;7.414;2023-08-06T09:12:34;7.47;;;2.80;;
35803;SDS011;21924;51.934;7.414;2023-08-06T09:15:19;4.53;;;2.55;;
35803;SDS011;21924;51.934;7.414;2023-08-06T09:18:10;2.90;;;2.33;;
35803;SDS011;21924;51.934;7.414;2023-08-06T09:20:57;3.60;;;2.47;;
35803;SDS011;21924;51.934;7.414;2023-08-06T09:23:42;2.22;;;2.00;;
35803;SDS011;21924;51.934;7.414;2023-08-06T09:26:33;4.72;;;2.70;;
35803;SDS011;21924;51.934;7.414;2023-08-06T09:29:19;2.95;;;2.20;;
35803;SDS011;21924;51.934;7.414;2023-08-06T09:34:48;7.15;;;2.22;;
35803;SDS011;21924;51.934;7.414;2023-08-06T09:37:40;4.63;;;3.00;;
35803;SDS011;21924;51.934;7.414;2023-08-06T09:40:25;4.47;;;2.80;;
35803;SDS011;21924;51.934;7.414;2023-08-06T09:43:14;5.60;;;2.20;;
35803;SDS011;21924;51.934;7.414;2023-08-06T09:45:58;7.93;;;2.95;;
35803;SDS011;21924;51.934;7.414;2023-08-06T09:48:47;5.60;;;3.38;;
35803;SDS011;21924;51.934;7.414;2023-08-06T09:51:32;3.22;;;2.30;;
35803;SDS011;21924;51.934;7.414;2023-08-06T09:54:18;5.03;;;2.70;;
35803;SDS011;21924;51.934;7.414;2023-08-06T09:59:51;7.75;;;2.80;;
35803;SDS011;21924;51.934;7.414;2023-08-06T10:02:44;5.32;;;2.50;;
35803;SDS011;21924;51.934;7.414;2023-08-06T10:05:31;3.60;;;2.17;;
35803;SDS011;21924;51.934;7.414;2023-08-06T10:08:16;4.25;;;2.35;;
35803;SDS011;21924;51.934;7.414;2023-08-06T10:11:02;4.10;;;2.10;;
35803;SDS011;21924;51.934;7.414;2023-08-06T10:13:49;2.58;;;1.95;;
35803;SDS011;21924;51.934;7.414;2023-08-06T10:16:38;10.35;;;2.20;;
35803;SDS011;21924;51.934;7.414;2023-08-06T10:19:24;2.75;;;1.80;;
35803;SDS011;21924;51.934;7.414;2023-08-06T10:22:11;5.07;;;1.95;;
35803;SDS011;21924;51.934;7.414;2023-08-06T10:24:58;5.38;;;2.03;;
35803;SDS011;21924;51.934;7.414;2023-08-06T10:30:33;4.22;;;1.85;;
35803;SDS011;21924;51.934;7.414;2023-08-06T10:33:18;4.88;;;1.98;;
35803;SDS011;21924;51.934;7.414;2023-08-06T10:36:03;5.88;;;1.73;;
35803;SDS011;21924;51.934;7.414;2023-08-06T10:38:58;3.72;;;1.77;;
35803;SDS011;21924;51.934;7.414;2023-08-06T10:41:42;2.95;;;1.88;;
35803;SDS011;21924;51.934;7.414;2023-08-06T10:44:30;2.95;;;1.75;;
35803;SDS011;21924;51.934;7.414;2023-08-06T10:47:27;4.60;;;2.13;;
35803;SDS011;21924;51.934;7.414;2023-08-06T10:50:12;3.10;;;2.15;;
35803;SDS011;21924;51.934;7.414;2023-08-06T10:53:04;4.15;;;1.95;;
35803;SDS011;21924;51.934;7.414;2023-08-06T10:55:50;2.95;;;1.98;;
35803;SDS011;21924;51.934;7.414;2023-08-06T10:58:34;6.00;;;1.65;;
35803;SDS011;21924;51.934;7.414;2023-08-06T11:01:18;3.88;;;1.60;;
35803;SDS011;21924;51.934;7.414;2023-08-06T11:04:03;2.22;;;1.50;;
35803;SDS011;21924;51.934;7.414;2023-08-06T11:06:54;4.55;;;1.63;;
35803;SDS011;21924;51.934;7.414;2023-08-06T11:09:39;2.13;;;1.42;;
35803;SDS011;21924;51.934;7.414;2023-08-06T11:12:48;3.75;;;1.52;;
35803;SDS011;21924;51.934;7.414;2023-08-06T11:15:33;3.42;;;1.88;;
35803;SDS011;21924;51.934;7.414;2023-08-06T11:18:19;5.47;;;2.30;;
35803;SDS011;21924;51.934;7.414;2023-08-06T11:21:04;4.50;;;2.15;;
35803;SDS011;21924;51.934;7.414;2023-08-06T11:23:48;4.03;;;1.80;;
35803;SDS011;21924;51.934;7.414;2023-08-06T11:26:33;2.67;;;1.65;;
35803;SDS011;21924;51.934;7.414;2023-08-06T11:29:18;5.63;;;2.10;;
35803;SDS011;21924;51.934;7.414;2023-08-06T11:32:03;4.50;;;2.00;;
35803;SDS011;21924;51.934;7.414;2023-08-06T11:34:52;4.28;;;1.80;;
35803;SDS011;21924;51.934;7.414;2023-08-06T11:37:39;5.00;;;1.85;;
35803;SDS011;21924;51.934;7.414;2023-08-06T11:40:47;2.85;;;1.52;;
35803;SDS011;21924;51.934;7.414;2023-08-06T11:43:31;2.65;;;1.45;;
35803;SDS011;21924;51.934;7.414;2023-08-06T11:46:16;8.93;;;2.03;;
35803;SDS011;21924;51.934;7.414;2023-08-06T11:49:01;2.30;;;1.13;;
35803;SDS011;21924;51.934;7.414;2023-08-06T11:51:45;4.22;;;1.60;;
35803;SDS011;21924;51.934;7.414;2023-08-06T11:54:33;4.53;;;1.42;;
35803;SDS011;21924;51.934;7.414;2023-08-06T11:57:18;6.32;;;1.80;;
35803;SDS011;21924;51.934;7.414;2023-08-06T12:00:02;3.10;;;1.55;;
35803;SDS011;21924;51.934;7.414;2023-08-06T12:02:48;4.10;;;1.90;;
35803;SDS011;21924;51.934;7.414;2023-08-06T12:05:41;4.97;;;1.40;;
35803;SDS011;21924;51.934;7.414;2023-08-06T12:08:30;2.80;;;1.63;;
35803;SDS011;21924;51.934;7.414;2023-08-06T12:11:14;3.03;;;1.85;;
35803;SDS011;21924;51.934;7.414;2023-08-06T12:13:58;3.85;;;1.98;;
35803;SDS011;21924;51.934;7.414;2023-08-06T12:16:43;4.50;;;2.17;;
35803;SDS011;21924;51.934;7.414;2023-08-06T12:19:27;4.88;;;2.05;;
35803;SDS011;21924;51.934;7.414;2023-08-06T12:24:58;4.07;;;2.03;;
35803;SDS011;21924;51.934;7.414;2023-08-06T12:27:44;10.85;;;1.95;;
35803;SDS011;21924;51.934;7.414;2023-08-06T12:30:29;3.83;;;1.52;;
35803;SDS011;21924;51.934;7.414;2023-08-06T12:33:13;2.40;;;1.58;;
35803;SDS011;21924;51.934;7.414;2023-08-06T12:35:58;2.95;;;1.70;;
35803;SDS011;21924;51.934;7.414;2023-08-06T12:38:50;2.90;;;1.60;;
35803;SDS011;21924;51.934;7.414;2023-08-06T12:41:34;2.28;;;1.73;;
35803;SDS011;21924;51.934;7.414;2023-08-06T12:44:20;1.35;;;1.15;;
35803;SDS011;21924;51.934;7.414;2023-08-06T12:47:12;2.13;;;1.52;;
35803;SDS011;21924;51.934;7.414;2023-08-06T12:49:57;4.18;;;1.60;;
35803;SDS011;21924;51.934;7.414;2023-08-06T12:52:41;2.53;;;1.50;;
35803;SDS011;21924;51.934;7.414;2023-08-06T12:55:26;2.45;;;1.00;;
35803;SDS011;21924;51.934;7.414;2023-08-06T12:58:10;3.72;;;1.58;;
35803;SDS011;21924;51.934;7.414;2023-08-06T13:00:54;1.95;;;1.40;;
35803;SDS011;21924;51.934;7.414;2023-08-06T13:03:38;2.53;;;1.25;;
35803;SDS011;21924;51.934;7.414;2023-08-06T13:06:23;6.88;;;1.70;;
35803;SDS011;21924;51.934;7.414;2023-08-06T13:09:07;1.73;;;1.40;;
35803;SDS011;21924;51.934;7.414;2023-08-06T13:11:53;9.30;;;1.43;;
35803;SDS011;21924;51.934;7.414;2023-08-06T13:14:43;3.60;;;1.05;;
35803;SDS011;21924;51.934;7.414;2023-08-06T13:17:28;3.58;;;1.67;;
35803;SDS011;21924;51.934;7.414;2023-08-06T13:20:12;3.42;;;1.77;;
35803;SDS011;21924;51.934;7.414;2023-08-06T13:22:57;1.73;;;1.38;;
35803;SDS011;21924;51.934;7.414;2023-08-06T13:25:45;3.20;;;2.00;;
35803;SDS011;21924;51.934;7.414;2023-08-06T13:28:29;2.88;;;1.92;;
35803;SDS011;21924;51.934;7.414;2023-08-06T13:31:14;1.80;;;1.23;;
35803;SDS011;21924;51.934;7.414;2023-08-06T13:34:00;2.40;;;1.55;;
35803;SDS011;21924;51.934;7.414;2023-08-06T13:36:44;3.60;;;1.77;;
35803;SDS011;21924;51.934;7.414;2023-08-06T13:39:29;7.93;;;1.92;;
35803;SDS011;21924;51.934;7.414;2023-08-06T13:42:13;2.42;;;1.50;;
35803;SDS011;21924;51.934;7.414;2023-08-06T13:44:57;3.75;;;1.70;;
35803;SDS011;21924;51.934;7.414;2023-08-06T13:47:47;2.50;;;2.15;;
35803;SDS011;21924;51.934;7.414;2023-08-06T13:50:31;1.85;;;1.55;;
35803;SDS011;21924;51.934;7.414;2023-08-06T13:53:15;2.50;;;1.48;;
35803;SDS011;21924;51.934;7.414;2023-08-06T13:55:59;5.10;;;1.65;;
35803;SDS011;21924;51.934;7.414;2023-08-06T13:58:43;2.20;;;1.52;;
35803;SDS011;21924;51.934;7.414;2023-08-06T14:01:43;3.80;;;2.15;;
35803;SDS011;21924;51.934;7.414;2023-08-06T14:04:36;7.13;;;2.38;;
35803;SDS011;21924;51.934;7.414;2023-08-06T14:07:21;5.82;;;2.70;;
35803;SDS011;21924;51.934;7.414;2023-08-06T14:10:05;3.20;;;2.25;;
35803;SDS011;21924;51.934;7.414;2023-08-06T14:12:51;4.20;;;2.20;;
35803;SDS011;21924;51.934;7.414;2023-08-06T14:15:35;4.30;;;1.60;;
35803;SDS011;21924;51.934;7.414;2023-08-06T14:18:23;2.55;;;1.48;;
35803;SDS011;21924;51.934;7.414;2023-08-06T14:21:07;3.03;;;1.85;;
35803;SDS011;21924;51.934;7.414;2023-08-06T14:23:52;3.92;;;1.52;;
35803;SDS011;21924;51.934;7.414;2023-08-06T14:26:38;6.70;;;2.17;;
35803;SDS011;21924;51.934;7.414;2023-08-06T14:29:22;6.05;;;1.90;;
35803;SDS011;21924;51.934;7.414;2023-08-06T14:32:07;4.55;;;2.53;;
35803;SDS011;21924;51.934;7.414;2023-08-06T14:34:53;6.72;;;2.83;;
35803;SDS011;21924;51.934;7.414;2023-08-06T14:37:39;11.55;;;2.88;;
35803;SDS011;21924;51.934;7.414;2023-08-06T14:40:26;4.43;;;2.75;;
35803;SDS011;21924;51.934;7.414;2023-08-06T14:43:15;2.80;;;2.45;;
35803;SDS011;21924;51.934;7.414;2023-08-06T14:46:01;3.15;;;2.42;;
35803;SDS011;21924;51.934;7.414;2023-08-06T14:48:47;4.00;;;2.28;;
35803;SDS011;21924;51.934;7.414;2023-08-06T14:51:39;3.72;;;2.58;;
35803;SDS011;21924;51.934;7.414;2023-08-06T14:54:23;2.75;;;1.80;;
35803;SDS011;21924;51.934;7.414;2023-08-06T14:57:07;2.22;;;1.83;;
35803;SDS011;21924;51.934;7.414;2023-08-06T15:00:14;3.53;;;2.05;;
35803;SDS011;21924;51.934;7.414;2023-08-06T15:02:59;1.70;;;1.58;;
35803;SDS011;21924;51.934;7.414;2023-08-06T15:05:46;2.05;;;1.70;;
35803;SDS011;21924;51.934;7.414;2023-08-06T15:08:34;2.95;;;2.42;;
35803;SDS011;21924;51.934;7.414;2023-08-06T15:11:30;2.60;;;2.20;;
35803;SDS011;21924;51.934;7.414;2023-08-06T15:14:19;8.07;;;2.40;;
35803;SDS011;21924;51.934;7.414;2023-08-06T15:17:19;5.75;;;3.67;;
35803;SDS011;21924;51.934;7.414;2023-08-06T15:20:07;4.55;;;2.83;;
35803;SDS011;21924;51.934;7.414;2023-08-06T15:22:54;4.60;;;3.38;;
35803;SDS011;21924;51.934;7.414;2023-08-06T15:25:58;5.50;;;3.35;;
35803;SDS011;21924;51.934;7.414;2023-08-06T15:28:43;2.85;;;2.15;;
35803;SDS011;21924;51.934;7.414;2023-08-06T15:31:35;6.55;;;2.45;;
35803;SDS011;21924;51.934;7.414;2023-08-06T15:34:34;3.67;;;2.47;;
35803;SDS011;21924;51.934;7.414;2023-08-06T15:37:24;4.60;;;3.15;;
35803;SDS011;21924;51.934;7.414;2023-08-06T15:40:09;3.72;;;2.90;;
35803;SDS011;21924;51.934;7.414;2023-08-06T15:42:54;5.68;;;3.35;;
35803;SDS011;21924;51.934;7.414;2023-08-06T15:45:38;5.10;;;3.17;;
35803;SDS011;21924;51.934;7.414;2023-08-06T15:48:22;5.40;;;4.00;;
35803;SDS011;21924;51.934;7.414;2023-08-06T15:51:08;6.18;;;3.50;;
35803;SDS011;21924;51.934;7.414;2023-08-06T15:54:13;5.70;;;3.78;;
35803;SDS011;21924;51.934;7.414;2023-08-06T15:57:37;7.43;;;3.25;;
35803;SDS011;21924;51.934;7.414;2023-08-06T16:00:22;5.35;;;2.83;;
35803;SDS011;21924;51.934;7.414;2023-08-06T16:03:06;4.68;;;3.13;;
35803;SDS011;21924;51.934;7.414;2023-08-06T16:06:02;5.50;;;3.47;;
35803;SDS011;21924;51.934;7.414;2023-08-06T16:12:36;3.40;;;2.33;;
35803;SDS011;21924;51.934;7.414;2023-08-06T16:15:39;3.63;;;2.55;;
35803;SDS011;21924;51.934;7.414;2023-08-06T16:18:38;4.60;;;2.35;;
35803;SDS011;21924;51.934;7.414;2023-08-06T16:21:22;3.35;;;2.20;;
35803;SDS011;21924;51.934;7.414;2023-08-06T16:24:20;3.40;;;2.35;;
35803;SDS011;21924;51.934;7.414;2023-08-06T16:27:25;3.15;;;2.30;;
35803;SDS011;21924;51.934;7.414;2023-08-06T16:30:10;2.88;;;1.83;;
35803;SDS011;21924;51.934;7.414;2023-08-06T16:32:54;2.95;;;2.17;;
35803;SDS011;21924;51.934;7.414;2023-08-06T16:35:39;3.20;;;2.15;;
35803;SDS011;21924;51.934;7.414;2023-08-06T16:38:25;2.77;;;1.80;;
35803;SDS011;21924;51.934;7.414;2023-08-06T16:41:09;4.22;;;2.40;;
35803;SDS011;21924;51.934;7.414;2023-08-06T16:43:53;4.20;;;2.40;;
35803;SDS011;21924;51.934;7.414;2023-08-06T16:46:39;4.57;;;2.35;;
35803;SDS011;21924;51.934;7.414;2023-08-06T16:49:23;11.52;;;2.90;;
35803;SDS011;21924;51.934;7.414;2023-08-06T16:52:07;5.95;;;2.65;;
35803;SDS011;21924;51.934;7.414;2023-08-06T16:54:52;6.13;;;2.80;;